createdAt,value
2017-07-23T00:01:23.356Z,18.80
2017-07-23T00:06:10.037Z,18.80
2017-07-23T00:10:56.682Z,19.00
2017-07-23T00:15:43.288Z,19.00
2017-07-23T00:20:30.043Z,18.90
2017-07-23T00:25:16.658Z,18.90
2017-07-23T00:30:03.297Z,18.70
2017-07-23T00:34:49.920Z,18.40
2017-07-23T00:39:36.841Z,18.70
2017-07-23T00:44:23.438Z,19.00
2017-07-23T00:49:10.081Z,18.90
2017-07-23T00:53:56.775Z,19.00
2017-07-23T00:58:43.605Z,19.00
2017-07-23T01:03:30.242Z,19.20
2017-07-23T01:08:16.849Z,19.20
2017-07-23T01:13:03.470Z,19.20
2017-07-23T01:17:50.093Z,19.00
2017-07-23T01:22:37.008Z,18.90
2017-07-23T01:27:23.644Z,19.00
2017-07-23T01:32:10.366Z,18.90
2017-07-23T01:36:57.304Z,18.90
2017-07-23T01:41:43.919Z,18.70
2017-07-23T01:46:30.548Z,18.70
2017-07-23T01:51:17.299Z,18.70
2017-07-23T01:56:04.772Z,18.50
2017-07-23T02:00:51.398Z,18.40
2017-07-23T02:05:38.198Z,18.30
2017-07-23T02:10:25.171Z,18.10
2017-07-23T02:15:11.910Z,17.90
2017-07-23T02:19:58.541Z,17.80
2017-07-23T02:24:45.169Z,17.70
2017-07-23T02:29:31.866Z,17.60
2017-07-23T02:34:19.796Z,17.50
2017-07-23T02:39:06.414Z,17.40
2017-07-23T02:43:53.140Z,17.50
2017-07-23T02:48:39.871Z,17.40
2017-07-23T02:53:26.687Z,17.30
2017-07-23T02:58:20.477Z,17.30
2017-07-23T03:03:07.059Z,17.30
2017-07-23T03:07:53.684Z,17.30
2017-07-23T03:12:40.308Z,17.30
2017-07-23T03:17:27.155Z,17.30
2017-07-23T03:22:13.771Z,17.30
2017-07-23T03:27:00.806Z,17.30
2017-07-23T03:31:47.613Z,17.30
2017-07-23T03:36:34.282Z,17.20
2017-07-23T03:41:21.669Z,17.20
2017-07-23T03:46:08.833Z,17.20
2017-07-23T03:50:55.511Z,17.40
2017-07-23T03:55:42.265Z,17.40
2017-07-23T04:00:29.675Z,17.40
2017-07-23T04:05:16.306Z,17.40
2017-07-23T04:10:03.281Z,17.40
2017-07-23T04:14:50.895Z,17.30
2017-07-23T04:19:37.530Z,17.30
2017-07-23T04:24:24.140Z,17.30
2017-07-23T04:29:10.801Z,17.40
2017-07-23T04:33:58.199Z,17.40
2017-07-23T04:38:45.119Z,17.40
2017-07-23T04:43:31.896Z,17.60
2017-07-23T04:48:18.653Z,17.60
2017-07-23T04:53:05.285Z,17.50
2017-07-23T04:57:52.111Z,17.70
2017-07-23T05:02:39.158Z,17.70
2017-07-23T05:07:25.769Z,17.60
2017-07-23T05:12:12.484Z,17.50
2017-07-23T05:16:59.132Z,17.40
2017-07-23T05:21:46.651Z,17.70
2017-07-23T05:26:33.296Z,17.70
2017-07-23T05:31:20.713Z,17.80
2017-07-23T05:36:07.749Z,17.80
2017-07-23T05:40:54.355Z,17.80
2017-07-23T05:45:41.189Z,18.00
2017-07-23T05:50:27.885Z,18.00
2017-07-23T05:55:14.517Z,18.20
2017-07-23T06:00:01.750Z,18.20
2017-07-23T06:04:48.487Z,17.80
2017-07-23T06:09:35.290Z,18.00
2017-07-23T06:14:21.985Z,18.10
2017-07-23T06:19:08.703Z,18.00
2017-07-23T06:23:55.353Z,18.20
2017-07-23T06:28:42.056Z,18.50
2017-07-23T06:33:29.020Z,18.70
2017-07-23T06:38:15.617Z,19.00
2017-07-23T06:43:02.235Z,19.00
2017-07-23T06:47:48.841Z,18.80
2017-07-23T06:52:35.455Z,18.60
2017-07-23T06:57:22.097Z,18.90
2017-07-23T07:02:09.252Z,19.20
2017-07-23T07:06:55.905Z,19.50
2017-07-23T07:11:43.308Z,19.80
2017-07-23T07:16:29.940Z,19.70
2017-07-23T07:21:16.558Z,19.70
2017-07-23T07:26:03.249Z,19.90
2017-07-23T07:30:50.311Z,20.10
2017-07-23T07:35:36.931Z,20.30
2017-07-23T07:40:23.621Z,20.50
2017-07-23T07:45:10.328Z,20.60
2017-07-23T07:49:57.070Z,20.50
2017-07-23T07:54:43.808Z,20.50
2017-07-23T07:59:30.588Z,20.50
2017-07-23T08:04:17.217Z,20.60
2017-07-23T08:09:03.908Z,20.80
2017-07-23T08:13:50.527Z,21.40
2017-07-23T08:18:37.945Z,22.00
2017-07-23T08:23:24.756Z,22.00
2017-07-23T08:28:11.437Z,22.30
2017-07-23T08:32:58.403Z,22.70
2017-07-23T08:37:45.044Z,22.60
2017-07-23T08:42:32.454Z,22.20
2017-07-23T08:47:19.181Z,22.10
2017-07-23T08:52:06.120Z,22.60
2017-07-23T08:56:52.760Z,22.40
2017-07-23T09:01:40.169Z,21.90
2017-07-23T09:06:27.206Z,21.90
2017-07-23T09:11:13.828Z,21.90
2017-07-23T09:16:00.522Z,21.90
2017-07-23T09:20:47.205Z,22.10
2017-07-23T09:25:33.831Z,22.80
2017-07-23T09:30:20.538Z,23.50
2017-07-23T09:35:07.956Z,23.70
2017-07-23T09:39:54.897Z,23.70
2017-07-23T09:44:42.260Z,25.10
2017-07-23T09:49:28.928Z,25.00
2017-07-23T09:54:15.616Z,25.40
2017-07-23T09:59:02.321Z,25.40
2017-07-23T10:03:49.398Z,25.10
2017-07-23T10:08:36.934Z,24.50
2017-07-23T10:13:30.710Z,24.40
2017-07-23T10:18:17.472Z,24.30
2017-07-23T10:23:04.234Z,24.50
2017-07-23T10:27:50.878Z,24.30
2017-07-23T10:32:37.545Z,24.40
2017-07-23T10:37:24.896Z,23.90
2017-07-23T10:42:11.532Z,23.90
2017-07-23T10:46:58.343Z,23.80
2017-07-23T10:51:45.074Z,22.90
2017-07-23T10:56:31.823Z,21.50
2017-07-23T11:01:18.450Z,20.70
2017-07-23T11:06:05.175Z,20.30
2017-07-23T11:10:51.833Z,19.90
2017-07-23T11:15:39.279Z,20.80
2017-07-23T11:20:26.073Z,20.70
2017-07-23T11:25:12.942Z,20.80
2017-07-23T11:29:59.620Z,20.90
2017-07-23T11:34:46.254Z,21.00
2017-07-23T11:39:33.678Z,21.60
2017-07-23T11:44:27.325Z,21.60
2017-07-23T11:49:13.957Z,22.00
2017-07-23T11:54:00.591Z,22.80
2017-07-23T11:58:47.192Z,23.60
2017-07-23T12:03:33.849Z,23.90
2017-07-23T12:08:27.528Z,23.80
2017-07-23T12:13:14.154Z,23.80
2017-07-23T12:18:00.827Z,24.00
2017-07-23T12:22:47.471Z,23.80
2017-07-23T12:27:34.125Z,23.90
2017-07-23T12:32:21.528Z,24.40
2017-07-23T12:37:08.144Z,24.30
2017-07-23T12:41:54.766Z,24.30
2017-07-23T12:46:41.421Z,24.30
2017-07-23T12:51:28.779Z,23.70
2017-07-23T12:56:15.421Z,23.70
2017-07-23T13:01:02.045Z,23.20
2017-07-23T13:05:48.793Z,22.80
2017-07-23T13:10:35.693Z,22.80
2017-07-23T13:15:22.321Z,23.00
2017-07-23T13:20:09.097Z,23.30
2017-07-23T13:24:56.446Z,23.70
2017-07-23T13:29:43.812Z,23.80
2017-07-23T13:34:30.458Z,23.80
2017-07-23T13:39:17.295Z,24.10
2017-07-23T13:44:05.519Z,24.10
2017-07-23T13:48:52.364Z,24.00
2017-07-23T13:53:39.036Z,23.90
2017-07-23T13:58:25.911Z,23.90
2017-07-23T14:03:12.601Z,24.10
2017-07-23T14:07:59.305Z,24.50
2017-07-23T14:12:46.064Z,24.60
2017-07-23T14:17:39.762Z,24.70
2017-07-23T14:22:26.372Z,24.90
2017-07-23T14:27:13.105Z,24.60
2017-07-23T14:31:59.737Z,24.40
2017-07-23T14:36:46.380Z,24.30
2017-07-23T14:41:33.054Z,24.60
2017-07-23T14:46:19.698Z,24.60
2017-07-23T14:51:06.611Z,24.50
2017-07-23T14:55:53.272Z,24.60
2017-07-23T15:00:40.713Z,24.40
2017-07-23T15:05:28.102Z,24.20
2017-07-23T15:10:14.749Z,24.20
2017-07-23T15:15:01.492Z,23.90
2017-07-23T15:19:48.100Z,23.80
2017-07-23T15:24:35.489Z,23.70
2017-07-23T15:29:22.158Z,23.70
2017-07-23T15:34:08.896Z,23.70
2017-07-23T15:38:56.086Z,23.80
2017-07-23T15:43:42.687Z,23.70
2017-07-23T15:48:29.309Z,23.60
2017-07-23T15:53:16.022Z,23.50
2017-07-23T15:58:02.671Z,23.50
2017-07-23T16:02:49.292Z,23.50
2017-07-23T16:07:35.949Z,23.40
2017-07-23T16:12:23.332Z,23.10
2017-07-23T16:17:10.011Z,23.10
2017-07-23T16:21:57.085Z,23.10
2017-07-23T16:26:43.733Z,23.20
2017-07-23T16:31:30.390Z,23.30
2017-07-23T16:36:17.074Z,23.30
2017-07-23T16:41:03.737Z,23.20
2017-07-23T16:45:50.414Z,23.20
2017-07-23T16:50:37.458Z,23.00
2017-07-23T16:55:24.854Z,22.90
2017-07-23T17:00:11.694Z,22.90
2017-07-23T17:04:58.399Z,22.90
2017-07-23T17:09:45.105Z,22.90
2017-07-23T17:14:31.781Z,22.80
2017-07-23T17:19:19.207Z,22.70
2017-07-23T17:24:06.021Z,22.70
2017-07-23T17:28:52.686Z,22.60
2017-07-23T17:33:39.393Z,22.50
2017-07-23T17:38:27.241Z,22.30
2017-07-23T17:43:14.701Z,22.30
2017-07-23T17:48:01.351Z,22.20
2017-07-23T17:52:48.095Z,22.10
2017-07-23T17:57:34.786Z,22.10
2017-07-23T18:02:21.465Z,22.10
2017-07-23T18:07:08.938Z,21.90
2017-07-23T18:11:55.655Z,21.90
2017-07-23T18:16:42.831Z,21.90
2017-07-23T18:21:29.553Z,21.90
2017-07-23T18:26:16.378Z,21.80
2017-07-23T18:31:03.114Z,21.80
2017-07-23T18:35:49.900Z,21.70
2017-07-23T18:40:36.822Z,21.80
2017-07-23T18:45:23.919Z,21.70
2017-07-23T18:50:11.397Z,21.60
2017-07-23T18:54:58.341Z,21.60
2017-07-23T18:59:45.161Z,21.50
2017-07-23T19:04:31.922Z,21.50
2017-07-23T19:09:18.845Z,21.50
2017-07-23T19:14:05.586Z,21.40
2017-07-23T19:18:53.189Z,21.40
2017-07-23T19:23:40.385Z,21.40
2017-07-23T19:28:27.432Z,21.30
2017-07-23T19:33:14.135Z,21.30
2017-07-23T19:38:01.773Z,21.30
2017-07-23T19:42:48.592Z,21.20
2017-07-23T19:47:35.370Z,20.50
2017-07-23T19:52:22.535Z,19.80
2017-07-23T19:57:09.937Z,18.80
2017-07-23T20:01:56.722Z,18.80
2017-07-23T20:06:43.427Z,18.60
2017-07-23T20:11:30.934Z,18.60
2017-07-23T20:16:17.663Z,18.60
2017-07-23T20:21:05.037Z,18.70
2017-07-23T20:25:51.765Z,18.60
2017-07-23T20:30:38.605Z,18.60
2017-07-23T20:35:25.357Z,18.70
2017-07-23T20:40:12.100Z,18.70
2017-07-23T20:44:59.014Z,18.70
2017-07-23T20:49:45.831Z,18.70
2017-07-23T20:54:32.593Z,18.60
2017-07-23T20:59:20.392Z,18.30
2017-07-23T21:04:07.050Z,18.30
2017-07-23T21:08:54.709Z,18.30
2017-07-23T21:13:41.394Z,18.30
2017-07-23T21:18:28.046Z,18.20
2017-07-23T21:23:15.502Z,18.20
2017-07-23T21:28:02.125Z,18.20
2017-07-23T21:32:48.821Z,18.20
2017-07-23T21:37:36.271Z,18.20
2017-07-23T21:42:23.259Z,18.10
2017-07-23T21:47:09.849Z,18.10
2017-07-23T21:51:56.443Z,18.10
2017-07-23T21:56:43.069Z,18.20
2017-07-23T22:01:29.694Z,18.00
2017-07-23T22:06:16.314Z,17.90
2017-07-23T22:11:02.935Z,17.90
2017-07-23T22:15:49.551Z,17.90
2017-07-23T22:20:36.208Z,17.90
2017-07-23T22:25:23.066Z,18.00
2017-07-23T22:30:10.803Z,18.00
2017-07-23T22:34:57.439Z,18.00
2017-07-23T22:39:44.073Z,18.10
2017-07-23T22:44:30.732Z,17.90
2017-07-23T22:49:17.462Z,18.00
2017-07-23T22:54:04.195Z,18.10
2017-07-23T22:58:51.536Z,18.00
2017-07-23T23:03:38.132Z,18.00
2017-07-23T23:08:24.775Z,17.90
2017-07-23T23:13:11.407Z,17.80
2017-07-23T23:17:58.025Z,17.80
2017-07-23T23:22:45.130Z,17.70
2017-07-23T23:27:31.776Z,17.70
2017-07-23T23:32:18.588Z,17.60
2017-07-23T23:37:05.245Z,17.80
2017-07-23T23:41:52.614Z,17.50
2017-07-23T23:46:39.271Z,17.50
2017-07-23T23:51:25.976Z,17.40
2017-07-23T23:56:12.925Z,17.50
